Time;durP1;ratioP1;P1;durP2;ratioP2;P2;SDS_P1;SDS_P2;PMS_P1;PMS_P2;Temp;Humidity;BMP_temperature;BMP_pressure;BME280_temperature;BME280_humidity;BME280_pressure;Samples;Min_cycle;Max_cycle;Signal;HPM_P1;HPM_P2
2024/03/12 00:00:58;;;;;;;62.55;33.28;;;8.40;99.90;;;;;;5047531;28;20080;-66
2024/03/12 00:03:28;;;;;;;69.03;36.50;;;8.40;99.90;;;;;;5039996;28;20712;-66
2024/03/12 00:05:59;;;;;;;71.63;33.70;;;8.40;99.90;;;;;;5047195;28;20080;-68
2024/03/12 00:08:29;;;;;;;67.28;34.85;;;8.40;99.90;;;;;;5048521;28;20041;-66
2024/03/12 00:10:56;;;;;;;63.25;34.70;;;8.30;99.90;;;;;;5045918;28;20071;-66
2024/03/12 00:13:23;;;;;;;64.35;33.40;;;8.30;99.90;;;;;;5044160;28;20044;-66
2024/03/12 00:15:50;;;;;;;65.43;34.95;;;8.30;99.90;;;;;;5040087;28;20050;-66
2024/03/12 00:18:17;;;;;;;74.90;38.40;;;8.40;99.90;;;;;;5046934;28;20071;-67
2024/03/12 00:20:45;;;;;;;78.57;36.50;;;8.30;99.90;;;;;;5041151;28;20144;-66
2024/03/12 00:23:12;;;;;;;129.57;53.58;;;8.40;99.90;;;;;;5047985;28;20132;-66
2024/03/12 00:25:40;;;;;;;100.40;45.75;;;8.40;99.90;;;;;;5045749;28;20049;-66
2024/03/12 00:28:08;;;;;;;81.75;39.10;;;8.30;99.90;;;;;;5044810;28;20043;-67
2024/03/12 00:30:40;;;;;;;116.50;47.92;;;8.30;99.90;;;;;;5042789;28;20053;-67
2024/03/12 00:33:07;;;;;;;88.15;40.17;;;8.30;99.90;;;;;;5048858;28;20040;-66
2024/03/12 00:35:35;;;;;;;87.88;40.35;;;8.30;99.90;;;;;;5045466;28;20044;-67
2024/03/12 00:38:03;;;;;;;83.28;38.58;;;8.30;99.90;;;;;;5047949;28;20048;-66
2024/03/12 00:40:33;;;;;;;97.13;42.20;;;8.30;99.90;;;;;;5044637;28;20569;-67
2024/03/12 00:43:02;;;;;;;83.28;39.42;;;8.20;99.90;;;;;;5045329;28;20063;-65
2024/03/12 00:45:36;;;;;;;71.88;35.95;;;8.20;99.90;;;;;;5046018;28;20045;-65
2024/03/12 00:48:12;;;;;;;62.53;30.30;;;8.10;99.90;;;;;;5048864;28;20045;-66
2024/03/12 00:50:42;;;;;;;78.88;34.80;;;8.00;99.90;;;;;;5048183;28;20045;-65
2024/03/12 00:53:11;;;;;;;67.93;35.88;;;8.10;99.90;;;;;;5042336;28;20056;-67
2024/03/12 00:55:40;;;;;;;70.00;35.50;;;8.10;99.90;;;;;;5047068;28;20099;-67
2024/03/12 00:58:10;;;;;;;73.25;35.35;;;8.10;99.90;;;;;;5023826;28;20520;-67
2024/03/12 01:00:39;;;;;;;74.50;34.22;;;8.00;99.90;;;;;;5046196;28;20053;-67
2024/03/12 01:03:08;;;;;;;85.22;37.17;;;8.00;99.90;;;;;;5047923;28;20040;-67
2024/03/12 01:05:36;;;;;;;98.28;41.92;;;8.10;99.90;;;;;;5046666;28;20053;-67
2024/03/12 01:08:05;;;;;;;74.47;36.35;;;8.00;99.90;;;;;;5047074;28;20041;-67
2024/03/12 01:10:33;;;;;;;117.22;48.75;;;8.10;99.90;;;;;;5045991;28;20110;-66
2024/03/12 01:13:01;;;;;;;81.97;35.15;;;8.10;99.90;;;;;;5047341;28;20053;-65
2024/03/12 01:15:28;;;;;;;91.22;39.85;;;8.10;99.90;;;;;;5048325;28;20469;-67
2024/03/12 01:17:58;;;;;;;104.55;44.67;;;8.10;99.90;;;;;;5043576;28;20049;-67
2024/03/12 01:20:26;;;;;;;121.00;49.67;;;8.10;99.90;;;;;;5046077;28;20068;-67
2024/03/12 01:22:54;;;;;;;98.80;46.30;;;8.10;99.90;;;;;;5045664;28;20045;-67
2024/03/12 01:25:21;;;;;;;72.65;35.97;;;8.10;99.90;;;;;;5040020;28;20471;-67
2024/03/12 01:27:48;;;;;;;68.25;36.03;;;8.20;99.90;;;;;;5046253;28;20131;-67
2024/03/12 01:30:16;;;;;;;58.33;31.10;;;8.20;99.90;;;;;;5048032;28;20048;-67
2024/03/12 01:32:44;;;;;;;53.70;28.60;;;8.20;99.90;;;;;;5042703;28;20080;-67
2024/03/12 01:35:14;;;;;;;48.60;27.48;;;8.20;99.90;;;;;;5042223;28;20093;-67
2024/03/12 01:37:43;;;;;;;50.53;27.65;;;8.20;99.90;;;;;;5046227;28;20507;-67
2024/03/12 01:40:19;;;;;;;53.97;27.38;;;8.10;99.90;;;;;;5039494;28;20080;-67
2024/03/12 01:42:51;;;;;;;55.80;27.27;;;8.20;99.90;;;;;;5046227;28;20052;-67
2024/03/12 01:45:20;;;;;;;55.40;28.73;;;8.10;99.90;;;;;;5050124;28;20059;-67
2024/03/12 01:47:49;;;;;;;51.83;25.30;;;8.20;99.90;;;;;;5042652;28;20056;-66
2024/03/12 01:50:18;;;;;;;47.38;26.52;;;8.20;99.90;;;;;;5045885;28;20045;-67
2024/03/12 01:52:46;;;;;;;46.92;26.45;;;8.10;99.90;;;;;;5045118;28;20044;-66
2024/03/12 01:55:13;;;;;;;44.40;25.73;;;8.20;99.90;;;;;;5042727;28;20052;-66
2024/03/12 01:57:41;;;;;;;48.30;26.05;;;8.10;99.90;;;;;;5038654;28;20055;-67
2024/03/12 02:00:13;;;;;;;50.25;27.08;;;8.10;99.90;;;;;;5045019;28;20045;-67
2024/03/12 02:02:41;;;;;;;48.97;25.35;;;8.20;99.90;;;;;;5043162;28;20133;-68
2024/03/12 02:05:12;;;;;;;43.00;25.00;;;8.20;99.90;;;;;;5045133;28;20500;-67
2024/03/12 02:07:45;;;;;;;41.25;23.83;;;8.20;99.90;;;;;;5048035;28;20049;-67
2024/03/12 02:10:15;;;;;;;47.25;24.27;;;8.20;99.90;;;;;;5046208;28;20052;-67
2024/03/12 02:12:45;;;;;;;44.50;25.38;;;8.20;99.90;;;;;;5044772;28;20565;-67
2024/03/12 02:15:13;;;;;;;47.72;24.38;;;8.20;99.90;;;;;;5046605;28;20045;-67
2024/03/12 02:17:40;;;;;;;37.15;22.38;;;8.20;99.90;;;;;;5044681;28;20129;-67
2024/03/12 02:20:09;;;;;;;46.38;22.98;;;8.20;99.90;;;;;;5045062;28;20071;-67
2024/03/12 02:22:36;;;;;;;43.00;24.30;;;8.20;99.90;;;;;;5042739;28;20433;-66
2024/03/12 02:25:10;;;;;;;41.90;24.27;;;8.20;99.90;;;;;;5044713;28;20491;-67
2024/03/12 02:27:39;;;;;;;44.83;24.60;;;8.20;99.90;;;;;;5042515;28;20051;-67
2024/03/12 02:30:10;;;;;;;39.70;22.45;;;8.20;99.90;;;;;;5046244;28;22019;-67
2024/03/12 02:32:40;;;;;;;44.08;24.33;;;8.20;99.90;;;;;;5044559;28;20064;-67
2024/03/12 02:35:11;;;;;;;41.42;22.45;;;8.20;99.90;;;;;;5042906;28;20044;-69
2024/03/12 02:37:39;;;;;;;41.88;22.33;;;8.20;99.90;;;;;;5046696;28;20049;-65
2024/03/12 02:40:14;;;;;;;39.35;22.40;;;8.20;99.90;;;;;;5043590;28;20156;-65
2024/03/12 02:42:43;;;;;;;41.22;22.95;;;8.20;99.90;;;;;;5045530;28;20131;-66
2024/03/12 02:45:14;;;;;;;43.42;23.05;;;8.20;99.90;;;;;;5046314;28;20128;-65
2024/03/12 02:47:42;;;;;;;40.28;23.33;;;8.20;99.90;;;;;;5045194;28;20087;-66
2024/03/12 02:50:09;;;;;;;41.78;21.88;;;8.20;99.90;;;;;;5044562;28;20063;-66
2024/03/12 02:52:37;;;;;;;39.63;22.10;;;8.20;99.90;;;;;;5042428;28;20053;-66
2024/03/12 02:55:05;;;;;;;39.22;21.35;;;8.20;99.90;;;;;;5045847;28;20045;-66
2024/03/12 02:57:32;;;;;;;41.50;22.92;;;8.10;99.90;;;;;;5046362;28;20483;-66
2024/03/12 02:59:59;;;;;;;40.63;22.65;;;8.10;99.90;;;;;;5043742;28;20073;-66
2024/03/12 03:02:28;;;;;;;38.58;21.05;;;8.00;99.90;;;;;;5035374;28;20056;-65
2024/03/12 03:04:55;;;;;;;38.58;21.13;;;8.00;99.90;;;;;;5044473;28;20071;-66
2024/03/12 03:07:24;;;;;;;35.00;20.02;;;8.00;99.90;;;;;;5044648;28;20049;-65
2024/03/12 03:09:51;;;;;;;38.60;22.00;;;8.00;99.90;;;;;;5045887;28;20051;-66
2024/03/12 03:12:17;;;;;;;40.67;22.33;;;8.00;99.90;;;;;;5044752;28;20080;-65
2024/03/12 03:14:44;;;;;;;38.08;21.35;;;8.00;99.90;;;;;;5043954;28;20045;-66
2024/03/12 03:17:11;;;;;;;35.45;20.35;;;8.00;99.90;;;;;;5045718;28;20056;-66
2024/03/12 03:19:38;;;;;;;34.75;20.05;;;8.00;99.90;;;;;;5045575;28;20529;-65
2024/03/12 03:22:05;;;;;;;40.97;20.85;;;8.00;99.90;;;;;;5045678;28;20061;-66
2024/03/12 03:24:36;;;;;;;35.72;19.55;;;8.00;99.90;;;;;;5045410;28;20048;-66
2024/03/12 03:27:03;;;;;;;31.63;18.10;;;8.00;99.90;;;;;;5043631;28;20060;-66
2024/03/12 03:29:31;;;;;;;30.75;19.38;;;7.90;99.90;;;;;;5044652;28;20045;-66
2024/03/12 03:31:58;;;;;;;31.58;17.98;;;7.90;99.90;;;;;;5043488;28;20134;-66
2024/03/12 03:34:28;;;;;;;37.35;18.83;;;7.90;99.90;;;;;;5046267;28;20049;-66
2024/03/12 03:36:58;;;;;;;34.95;19.30;;;7.90;99.90;;;;;;5043386;28;20409;-66
2024/03/12 03:39:26;;;;;;;37.25;18.83;;;7.90;99.90;;;;;;5046273;28;20144;-66
2024/03/12 03:41:54;;;;;;;34.08;18.48;;;7.90;99.90;;;;;;5043160;28;20049;-65
2024/03/12 03:44:22;;;;;;;35.63;18.92;;;7.90;99.90;;;;;;5039958;28;20068;-64
2024/03/12 03:46:49;;;;;;;36.15;17.25;;;7.90;99.90;;;;;;5044443;28;20051;-64
2024/03/12 03:49:16;;;;;;;32.92;18.27;;;7.90;99.90;;;;;;5043918;28;20508;-66
2024/03/12 03:51:42;;;;;;;32.00;17.95;;;7.80;99.90;;;;;;5042959;28;20048;-66
2024/03/12 03:54:09;;;;;;;31.27;16.48;;;7.90;99.90;;;;;;5045077;28;20068;-67
2024/03/12 03:56:37;;;;;;;29.98;16.55;;;7.80;99.90;;;;;;5040186;28;20434;-66
2024/03/12 03:59:05;;;;;;;34.80;17.27;;;7.90;99.90;;;;;;5041257;28;20048;-66
2024/03/12 04:01:33;;;;;;;32.75;17.27;;;7.90;99.90;;;;;;5043537;28;20041;-66
2024/03/12 04:04:10;;;;;;;35.00;16.90;;;7.90;99.90;;;;;;5045575;28;20141;-66
2024/03/12 04:06:38;;;;;;;30.45;16.05;;;7.90;99.90;;;;;;5049148;28;20140;-66
2024/03/12 04:09:05;;;;;;;29.25;16.63;;;8.00;99.90;;;;;;5047280;28;20040;-66
2024/03/12 04:11:33;;;;;;;32.03;16.73;;;8.00;99.90;;;;;;5047723;28;20518;-64
2024/03/12 04:14:02;;;;;;;27.85;16.40;;;8.00;99.90;;;;;;5030181;28;20077;-66
2024/03/12 04:16:32;;;;;;;34.67;16.83;;;8.00;99.90;;;;;;5045325;28;20065;-66
2024/03/12 04:18:59;;;;;;;28.92;16.45;;;8.00;99.90;;;;;;5046180;28;20041;-66
2024/03/12 04:21:26;;;;;;;24.85;14.27;;;8.00;99.90;;;;;;5048524;28;20488;-66
2024/03/12 04:23:53;;;;;;;31.05;17.50;;;8.10;99.90;;;;;;5048274;28;20127;-66
2024/03/12 04:26:20;;;;;;;27.00;14.85;;;8.00;99.90;;;;;;5042340;28;20049;-66
2024/03/12 04:28:47;;;;;;;31.10;15.88;;;8.10;99.90;;;;;;5047792;28;20091;-65
2024/03/12 04:31:14;;;;;;;32.47;17.02;;;8.00;99.90;;;;;;5048749;28;20064;-66
2024/03/12 04:33:41;;;;;;;27.73;14.32;;;8.00;99.90;;;;;;5045074;28;20041;-66
2024/03/12 04:36:07;;;;;;;23.90;13.73;;;8.10;99.90;;;;;;5043757;28;20059;-66
2024/03/12 04:38:35;;;;;;;28.02;15.00;;;8.10;99.90;;;;;;5048651;28;20130;-66
2024/03/12 04:41:02;;;;;;;25.83;14.75;;;8.10;99.90;;;;;;5047188;28;20049;-66
2024/03/12 04:43:29;;;;;;;25.25;13.98;;;8.10;99.90;;;;;;5044614;28;20380;-66
2024/03/12 04:45:56;;;;;;;25.02;15.38;;;8.10;99.90;;;;;;5046663;28;20052;-66
2024/03/12 04:48:23;;;;;;;28.58;15.43;;;8.10;99.90;;;;;;5047809;28;20111;-66
2024/03/12 04:50:49;;;;;;;27.42;15.35;;;8.10;99.90;;;;;;5053326;28;20486;-68
2024/03/12 04:53:16;;;;;;;31.10;15.88;;;8.10;99.90;;;;;;5047396;28;20045;-67
2024/03/12 04:55:47;;;;;;;33.42;16.35;;;8.10;99.90;;;;;;5045311;28;20076;-66
2024/03/12 04:58:14;;;;;;;24.67;14.75;;;8.10;99.90;;;;;;5047901;28;20044;-66
2024/03/12 05:00:41;;;;;;;26.10;15.82;;;8.10;99.90;;;;;;5046906;28;20099;-67
2024/03/12 05:03:09;;;;;;;28.60;16.55;;;8.20;99.90;;;;;;5048192;28;20576;-66
2024/03/12 05:05:36;;;;;;;26.95;15.80;;;8.10;99.90;;;;;;5045972;28;20037;-67
2024/03/12 05:08:03;;;;;;;28.98;14.75;;;8.20;99.90;;;;;;5041368;28;21287;-66
2024/03/12 05:10:30;;;;;;;25.15;14.18;;;8.20;99.90;;;;;;5046831;28;20106;-66
2024/03/12 05:12:57;;;;;;;26.60;16.17;;;8.20;99.90;;;;;;5048469;28;20053;-64
2024/03/12 05:15:24;;;;;;;30.80;15.30;;;8.20;99.90;;;;;;5043020;28;20049;-65
2024/03/12 05:17:52;;;;;;;26.95;15.63;;;8.20;99.90;;;;;;5047706;28;20063;-66
2024/03/12 05:20:22;;;;;;;26.27;15.57;;;8.10;99.90;;;;;;5044495;28;20561;-67
2024/03/12 05:22:50;;;;;;;34.10;16.10;;;8.10;99.90;;;;;;5049371;28;20087;-64
2024/03/12 05:25:24;;;;;;;24.70;14.50;;;8.10;99.90;;;;;;5046015;28;20051;-65
2024/03/12 05:27:51;;;;;;;;;;;8.00;99.90;;;;;;5048545;28;20491;-67
2024/03/12 05:30:20;;;;;;;28.80;16.63;;;8.00;99.90;;;;;;5047823;28;19932;-65
2024/03/12 05:32:48;;;;;;;34.22;16.67;;;7.90;99.90;;;;;;5045214;28;20438;-66
2024/03/12 05:35:22;;;;;;;35.88;16.98;;;7.90;99.90;;;;;;5044535;28;20381;-65
2024/03/12 05:38:22;;;;;;;31.52;17.67;;;7.80;99.90;;;;;;5042203;28;20053;-65
2024/03/12 05:48:40;;;;;;;36.40;18.10;;;7.70;99.90;;;;;;5042936;28;20055;-66
2024/03/12 05:51:08;;;;;;;36.85;17.80;;;7.70;99.90;;;;;;5047316;28;20045;-67
2024/03/12 05:53:37;;;;;;;28.02;15.65;;;7.70;99.90;;;;;;5054659;28;20656;-66
2024/03/12 05:56:09;;;;;;;31.08;17.08;;;7.70;99.90;;;;;;5045125;28;20098;-67
2024/03/12 05:58:36;;;;;;;31.73;17.05;;;7.60;99.90;;;;;;5046997;28;20507;-66
2024/03/12 06:01:04;;;;;;;37.10;17.42;;;7.70;99.90;;;;;;5046136;28;20098;-67
2024/03/12 06:03:37;;;;;;;39.97;19.10;;;7.70;99.90;;;;;;5047673;28;20504;-66
2024/03/12 06:06:04;;;;;;;32.40;17.20;;;7.60;99.90;;;;;;5046961;28;20045;-66
2024/03/12 06:08:31;;;;;;;26.75;16.10;;;7.60;99.90;;;;;;5047373;28;20049;-66
2024/03/12 06:10:58;;;;;;;30.30;17.10;;;7.60;99.90;;;;;;5045864;28;20053;-67
2024/03/12 06:13:25;;;;;;;28.75;14.70;;;7.60;99.90;;;;;;5045609;28;20057;-66
2024/03/12 06:15:51;;;;;;;24.10;14.48;;;7.60;99.90;;;;;;5046233;28;20660;-66
2024/03/12 06:18:18;;;;;;;33.00;15.52;;;7.50;99.90;;;;;;5044330;28;21589;-66
2024/03/12 06:20:49;;;;;;;28.10;15.40;;;7.50;99.90;;;;;;5047455;28;20103;-65
2024/03/12 06:23:19;;;;;;;29.38;15.18;;;7.50;99.90;;;;;;5044908;28;20053;-65
2024/03/12 06:25:46;;;;;;;25.38;13.57;;;7.50;99.90;;;;;;5046957;28;20045;-66
2024/03/12 06:28:14;;;;;;;25.42;12.63;;;7.50;99.90;;;;;;5043110;28;20048;-66
2024/03/12 06:30:43;;;;;;;23.95;11.68;;;7.50;99.90;;;;;;5046229;28;20037;-66
2024/03/12 06:33:11;;;;;;;20.88;12.00;;;7.50;99.90;;;;;;5045799;28;20056;-66
2024/03/12 06:35:40;;;;;;;21.90;11.82;;;7.50;99.90;;;;;;5047409;28;20055;-66
2024/03/12 06:38:07;;;;;;;22.08;11.50;;;7.50;99.90;;;;;;5046483;28;20049;-66
2024/03/12 06:40:34;;;;;;;17.38;10.75;;;7.50;99.90;;;;;;5046635;28;20053;-66
2024/03/12 06:43:01;;;;;;;17.95;9.75;;;7.40;99.90;;;;;;5046136;28;20110;-65
2024/03/12 06:45:28;;;;;;;21.17;10.48;;;7.50;99.90;;;;;;5048120;28;20106;-65
2024/03/12 06:47:55;;;;;;;18.30;10.55;;;7.50;99.90;;;;;;5045226;28;20044;-66
2024/03/12 06:50:25;;;;;;;24.20;10.93;;;7.50;99.90;;;;;;5047121;28;20057;-66
2024/03/12 06:52:55;;;;;;;22.48;11.23;;;7.50;99.90;;;;;;5044411;28;20044;-66
2024/03/12 06:55:26;;;;;;;15.80;9.32;;;7.50;99.90;;;;;;5047478;28;20044;-66
2024/03/12 06:58:02;;;;;;;20.85;9.95;;;7.50;99.90;;;;;;5044957;28;20056;-66
2024/03/12 07:00:40;;;;;;;23.50;12.05;;;7.60;99.90;;;;;;5041426;28;20052;-65
2024/03/12 07:03:07;;;;;;;18.30;10.52;;;7.50;99.90;;;;;;5048414;28;20041;-67
2024/03/12 07:05:37;;;;;;;20.23;9.43;;;7.60;99.90;;;;;;5047916;28;20075;-66
2024/03/12 07:08:07;;;;;;;16.88;8.65;;;7.50;99.90;;;;;;5038157;28;20486;-66
2024/03/12 07:10:36;;;;;;;21.55;10.13;;;7.60;99.90;;;;;;5044190;28;20137;-68
2024/03/12 07:13:07;;;;;;;17.02;9.18;;;7.60;99.90;;;;;;5040053;28;20088;-68
2024/03/12 07:15:35;;;;;;;22.20;9.65;;;7.60;99.90;;;;;;5045944;28;20495;-67
2024/03/12 07:18:06;;;;;;;22.52;9.52;;;7.60;99.90;;;;;;5036084;28;20075;-67
2024/03/12 07:20:34;;;;;;;12.18;7.75;;;7.60;99.90;;;;;;5047504;28;20499;-67
2024/03/12 07:23:02;;;;;;;16.52;7.78;;;7.60;99.90;;;;;;5046382;28;20045;-66
2024/03/12 07:25:30;;;;;;;18.73;8.45;;;7.60;99.90;;;;;;5048234;28;20522;-66
2024/03/12 07:27:59;;;;;;;15.63;7.30;;;7.60;99.90;;;;;;5044633;28;20112;-66
2024/03/12 07:30:26;;;;;;;17.15;8.45;;;7.60;99.90;;;;;;5044742;28;20654;-67
2024/03/12 07:32:53;;;;;;;17.85;8.15;;;7.60;99.90;;;;;;5046835;28;20049;-67
2024/03/12 07:35:20;;;;;;;19.98;8.35;;;7.70;99.90;;;;;;5045349;28;20132;-67
2024/03/12 07:37:48;;;;;;;26.55;9.35;;;7.70;99.90;;;;;;5058252;28;20195;-67
2024/03/12 07:40:17;;;;;;;14.13;8.10;;;7.70;99.90;;;;;;5046522;28;20148;-66
2024/03/12 07:42:45;;;;;;;19.20;9.30;;;7.70;99.90;;;;;;5045587;28;20049;-67
2024/03/12 07:45:13;;;;;;;16.42;7.90;;;7.70;99.90;;;;;;5043714;28;20733;-67
2024/03/12 07:47:40;;;;;;;14.43;8.15;;;7.80;99.90;;;;;;5030949;28;20051;-67
2024/03/12 07:50:08;;;;;;;11.88;7.10;;;7.80;99.90;;;;;;5046341;28;20045;-67
2024/03/12 07:52:35;;;;;;;12.63;7.15;;;7.80;99.90;;;;;;5047543;28;20057;-66
2024/03/12 07:55:02;;;;;;;15.77;8.07;;;7.90;99.90;;;;;;5041612;28;20089;-66
2024/03/12 07:57:33;;;;;;;14.38;7.72;;;7.80;99.90;;;;;;5045770;28;20071;-68
2024/03/12 08:00:00;;;;;;;13.10;6.90;;;7.90;99.90;;;;;;5047477;28;20131;-68
2024/03/12 08:02:27;;;;;;;14.95;6.95;;;7.90;99.90;;;;;;5028179;28;20214;-66
2024/03/12 08:04:53;;;;;;;14.55;7.20;;;8.00;99.90;;;;;;5045379;28;20059;-67
2024/03/12 08:07:21;;;;;;;11.48;5.78;;;8.00;99.90;;;;;;5053661;28;20188;-66
2024/03/12 08:09:48;;;;;;;10.73;5.95;;;8.00;99.90;;;;;;5049972;28;20037;-67
2024/03/12 08:12:19;;;;;;;13.35;6.43;;;8.00;99.90;;;;;;5039708;28;20103;-69
2024/03/12 08:14:46;;;;;;;11.95;5.53;;;8.00;99.90;;;;;;5051223;28;20041;-66
2024/03/12 08:17:13;;;;;;;13.85;5.43;;;8.00;99.90;;;;;;5043819;28;20057;-66
2024/03/12 08:19:42;;;;;;;15.75;5.75;;;8.00;99.90;;;;;;5044789;28;20743;-66
2024/03/12 08:22:09;;;;;;;22.40;6.68;;;8.00;99.90;;;;;;5048986;28;20059;-67
2024/03/12 08:24:39;;;;;;;7.25;4.93;;;8.00;99.90;;;;;;5044495;28;20064;-67
2024/03/12 08:27:06;;;;;;;9.65;4.90;;;8.10;99.90;;;;;;5044400;28;20045;-67
2024/03/12 08:29:33;;;;;;;6.78;4.07;;;8.10;99.90;;;;;;5048479;28;20045;-66
2024/03/12 08:32:00;;;;;;;6.78;4.18;;;8.10;99.90;;;;;;5044183;28;20483;-66
2024/03/12 08:34:28;;;;;;;8.20;3.70;;;8.10;99.90;;;;;;5044110;28;20084;-66
2024/03/12 08:36:55;;;;;;;6.25;3.20;;;8.20;99.90;;;;;;5041546;28;20496;-67
2024/03/12 08:39:24;;;;;;;8.93;4.28;;;8.20;99.90;;;;;;5047707;28;20136;-66
2024/03/12 08:41:50;;;;;;;6.70;2.92;;;8.20;99.90;;;;;;5045271;28;20044;-67
2024/03/12 08:44:18;;;;;;;4.32;3.45;;;8.20;99.90;;;;;;5034845;28;20443;-65
2024/03/12 08:46:45;;;;;;;5.32;3.13;;;8.30;99.90;;;;;;5046250;28;20067;-68
2024/03/12 08:49:12;;;;;;;5.72;3.30;;;8.30;99.90;;;;;;5047307;28;20045;-67
2024/03/12 08:51:40;;;;;;;5.32;2.58;;;8.40;99.90;;;;;;5022155;28;20446;-62
2024/03/12 08:54:08;;;;;;;4.90;2.90;;;8.40;99.90;;;;;;5041111;28;20137;-66
2024/03/12 08:56:36;;;;;;;6.53;2.80;;;8.50;99.90;;;;;;5044062;28;20072;-66
2024/03/12 08:59:05;;;;;;;4.70;2.25;;;8.50;99.90;;;;;;5045173;28;20102;-66
2024/03/12 09:01:32;;;;;;;4.15;2.35;;;8.50;99.90;;;;;;5044005;28;20120;-67
2024/03/12 09:04:00;;;;;;;3.00;2.17;;;8.50;99.90;;;;;;5042149;28;20045;-66
2024/03/12 09:06:27;;;;;;;7.43;2.58;;;8.50;99.90;;;;;;5046579;28;20144;-66
2024/03/12 09:08:55;;;;;;;4.35;2.50;;;8.50;99.90;;;;;;5047284;28;20057;-66
2024/03/12 09:11:22;;;;;;;9.40;2.60;;;8.60;99.90;;;;;;5055699;28;20071;-66
2024/03/12 09:13:50;;;;;;;13.82;2.85;;;8.60;99.90;;;;;;5042906;28;20061;-66
2024/03/12 09:16:16;;;;;;;2.83;1.90;;;8.60;99.90;;;;;;5042556;28;20049;-64
2024/03/12 09:18:43;;;;;;;2.92;2.05;;;8.60;99.90;;;;;;5044287;28;20044;-67
2024/03/12 09:21:12;;;;;;;5.28;1.55;;;8.70;99.90;;;;;;5045405;28;20045;-67
2024/03/12 09:23:40;;;;;;;7.45;2.28;;;8.70;99.90;;;;;;5044734;28;20052;-65
2024/03/12 09:26:22;;;;;;;3.90;1.50;;;8.80;99.90;;;;;;5041735;28;20045;-66
2024/03/12 09:28:49;;;;;;;2.22;1.70;;;8.70;99.90;;;;;;5044632;28;20136;-66
2024/03/12 09:31:18;;;;;;;4.43;1.60;;;8.80;99.90;;;;;;5045813;28;20195;-65
2024/03/12 09:33:45;;;;;;;6.50;1.60;;;8.90;99.90;;;;;;5040879;28;20059;-67
2024/03/12 09:36:14;;;;;;;4.25;1.15;;;8.90;99.90;;;;;;5040283;28;20040;-66
2024/03/12 09:38:42;;;;;;;2.00;1.10;;;8.90;99.90;;;;;;5041003;28;20044;-67
2024/03/12 09:41:09;;;;;;;2.00;1.25;;;9.00;99.90;;;;;;5041482;28;20060;-67
2024/03/12 09:43:36;;;;;;;3.85;1.33;;;9.00;99.90;;;;;;5037614;28;20052;-68
2024/03/12 09:46:03;;;;;;;2.80;0.90;;;9.10;99.90;;;;;;5039780;28;20053;-67
2024/03/12 09:48:30;;;;;;;2.83;1.58;;;9.10;99.90;;;;;;5055342;28;20488;-66
2024/03/12 09:50:59;;;;;;;2.75;1.48;;;9.10;99.90;;;;;;5045340;28;20080;-66
2024/03/12 09:53:26;;;;;;;4.57;0.98;;;9.20;99.90;;;;;;5043659;28;20059;-66
2024/03/12 09:55:53;;;;;;;1.85;0.95;;;9.20;99.90;;;;;;5046736;28;20132;-66
2024/03/12 09:58:20;;;;;;;2.38;1.67;;;9.30;99.90;;;;;;5040045;28;20056;-66
2024/03/12 10:00:47;;;;;;;1.67;1.10;;;9.30;99.90;;;;;;5041637;28;20068;-66
2024/03/12 10:03:19;;;;;;;3.15;1.08;;;9.30;99.90;;;;;;5039968;28;20045;-66
2024/03/12 10:05:46;;;;;;;0.98;0.80;;;9.40;99.90;;;;;;5021952;28;20115;-67
2024/03/12 10:08:17;;;;;;;0.82;0.60;;;9.40;99.90;;;;;;5042647;28;20053;-67
2024/03/12 10:10:44;;;;;;;1.75;0.82;;;9.40;99.90;;;;;;5045771;28;20080;-67
2024/03/12 10:13:14;;;;;;;1.20;0.95;;;9.50;99.90;;;;;;5046480;28;20511;-66
2024/03/12 10:15:58;;;;;;;2.15;0.60;;;9.50;99.90;;;;;;5043233;28;20233;-66
2024/03/12 10:18:28;;;;;;;2.85;0.57;;;9.50;99.90;;;;;;5042031;28;20056;-67
2024/03/12 10:20:57;;;;;;;0.93;0.50;;;9.60;99.90;;;;;;5043257;28;20111;-66
2024/03/12 10:23:29;;;;;;;1.58;0.70;;;9.60;99.90;;;;;;5045371;28;20044;-67
2024/03/12 10:26:18;;;;;;;0.60;0.50;;;9.60;99.90;;;;;;5045080;28;20492;-66
2024/03/12 10:28:46;;;;;;;0.45;0.45;;;9.70;99.90;;;;;;5042066;28;20057;-67
2024/03/12 10:31:13;;;;;;;1.33;0.70;;;9.70;99.90;;;;;;5044838;28;20052;-67
2024/03/12 10:33:52;;;;;;;0.88;0.60;;;9.80;99.90;;;;;;5028267;28;20504;-67
2024/03/12 10:36:28;;;;;;;1.23;0.40;;;9.80;99.90;;;;;;5041490;28;20475;-67
2024/03/12 10:38:55;;;;;;;1.65;0.80;;;9.90;99.90;;;;;;5046449;28;20045;-67
2024/03/12 10:41:22;;;;;;;0.40;0.40;;;9.90;99.90;;;;;;5033039;28;20045;-67
2024/03/12 10:43:49;;;;;;;2.05;1.40;;;9.90;99.90;;;;;;5042095;28;20097;-66
2024/03/12 10:46:18;;;;;;;5.97;0.52;;;9.90;99.90;;;;;;5039917;28;20091;-66
2024/03/12 10:48:46;;;;;;;1.20;0.70;;;10.00;99.90;;;;;;5046953;28;20049;-67
2024/03/12 10:51:17;;;;;;;0.55;0.50;;;10.10;99.90;;;;;;5025789;28;20046;-66
2024/03/12 10:53:49;;;;;;;0.60;0.50;;;10.20;99.90;;;;;;5041255;28;20048;-66
2024/03/12 10:56:19;;;;;;;1.02;0.30;;;10.20;99.90;;;;;;5039165;28;20041;-66
2024/03/12 10:58:50;;;;;;;2.72;0.90;;;10.20;99.90;;;;;;5045302;28;21098;-66
2024/03/12 11:01:20;;;;;;;1.25;0.77;;;10.20;99.90;;;;;;5045010;28;20119;-66
2024/03/12 11:03:50;;;;;;;3.25;1.33;;;10.30;99.90;;;;;;5034898;28;20412;-66
2024/03/12 11:06:19;;;;;;;1.55;0.80;;;10.40;99.90;;;;;;5026366;28;20128;-68
2024/03/12 11:08:46;;;;;;;1.52;0.90;;;10.40;99.90;;;;;;5043186;28;20404;-67
2024/03/12 11:11:13;;;;;;;2.15;0.80;;;10.50;99.90;;;;;;5044071;28;20086;-67
2024/03/12 11:13:40;;;;;;;2.97;0.98;;;10.50;99.90;;;;;;5042539;28;20361;-68
2024/03/12 11:16:17;;;;;;;0.85;0.60;;;10.50;99.90;;;;;;5044363;28;20053;-66
2024/03/12 11:18:45;;;;;;;1.98;0.90;;;10.50;99.90;;;;;;5044708;28;20068;-67
2024/03/12 11:21:13;;;;;;;0.98;0.70;;;10.50;99.90;;;;;;5045450;28;20441;-67
2024/03/12 11:23:40;;;;;;;5.75;0.77;;;10.60;99.90;;;;;;5043651;28;20254;-67
2024/03/12 11:26:08;;;;;;;1.75;0.77;;;10.60;99.90;;;;;;5045343;28;20470;-67
2024/03/12 11:28:50;;;;;;;5.13;0.98;;;10.70;99.90;;;;;;5044112;28;20072;-67
2024/03/12 11:31:18;;;;;;;1.33;0.80;;;10.80;99.90;;;;;;5042305;28;20041;-67
2024/03/12 11:33:49;;;;;;;3.33;1.05;;;10.80;99.90;;;;;;5044581;28;20419;-68
2024/03/12 11:36:28;;;;;;;4.63;1.05;;;10.80;99.90;;;;;;5046491;28;20127;-67
2024/03/12 11:39:04;;;;;;;5.80;0.93;;;10.90;99.90;;;;;;5044137;28;20431;-67
2024/03/12 11:41:59;;;;;;;3.13;0.70;;;10.90;99.90;;;;;;5043541;28;20045;-67
2024/03/12 11:44:52;;;;;;;2.10;0.50;;;11.00;99.90;;;;;;5042834;28;20056;-67
2024/03/12 11:47:31;;;;;;;1.15;0.90;;;11.00;99.90;;;;;;5037442;28;20077;-67
2024/03/12 11:49:58;;;;;;;2.53;0.73;;;11.00;99.90;;;;;;5045181;28;20045;-67
2024/03/12 11:52:31;;;;;;;2.90;0.80;;;11.00;99.90;;;;;;5043955;28;20628;-67
2024/03/12 11:54:59;;;;;;;8.35;3.20;;;11.10;99.90;;;;;;5044177;28;20045;-67
2024/03/12 11:57:29;;;;;;;4.28;1.08;;;11.10;99.90;;;;;;5042490;28;20103;-67
2024/03/12 11:59:57;;;;;;;6.88;1.23;;;11.20;99.90;;;;;;5044316;28;20079;-67
2024/03/12 12:02:26;;;;;;;6.80;0.90;;;11.20;99.90;;;;;;5039676;28;20057;-67
2024/03/12 12:04:54;;;;;;;1.92;0.60;;;11.20;99.90;;;;;;5045140;28;20049;-67
2024/03/12 12:07:22;;;;;;;3.25;0.95;;;11.30;99.90;;;;;;5042823;28;20045;-67
2024/03/12 12:09:49;;;;;;;3.58;1.13;;;11.30;99.90;;;;;;5043632;28;20562;-67
2024/03/12 12:12:17;;;;;;;2.97;0.80;;;11.30;99.90;;;;;;5044399;28;20044;-67
2024/03/12 12:14:44;;;;;;;4.75;1.00;;;11.30;99.90;;;;;;5045450;28;20114;-67
2024/03/12 12:17:11;;;;;;;4.07;0.85;;;11.30;99.90;;;;;;5044570;28;20068;-67
2024/03/12 12:19:39;;;;;;;3.47;1.00;;;11.30;99.90;;;;;;5041680;28;20416;-67
2024/03/12 12:22:09;;;;;;;1.25;0.70;;;11.40;99.90;;;;;;5046267;28;20102;-67
2024/03/12 12:24:39;;;;;;;2.63;0.80;;;11.40;99.90;;;;;;5042961;28;20092;-67
2024/03/12 12:27:06;;;;;;;1.52;0.70;;;11.40;99.90;;;;;;5043923;28;20045;-67
2024/03/12 12:29:33;;;;;;;2.55;0.90;;;11.50;99.90;;;;;;5043714;28;20111;-67
2024/03/12 12:32:00;;;;;;;1.63;1.02;;;11.50;99.90;;;;;;5050723;28;20088;-66
2024/03/12 12:34:28;;;;;;;1.50;0.73;;;11.50;99.90;;;;;;5033309;28;20060;-66
2024/03/12 12:36:56;;;;;;;5.57;1.10;;;11.60;99.90;;;;;;5046364;28;20041;-66
2024/03/12 12:39:22;;;;;;;5.10;1.33;;;11.60;99.90;;;;;;5047517;28;20072;-66
2024/03/12 12:42:07;;;;;;;4.40;1.30;;;11.60;99.90;;;;;;5048072;28;20504;-66
2024/03/12 12:44:34;;;;;;;2.22;0.85;;;11.60;99.90;;;;;;5047183;28;20049;-66
2024/03/12 12:47:03;;;;;;;1.73;0.82;;;11.60;99.90;;;;;;5047054;28;20048;-66
2024/03/12 12:49:32;;;;;;;1.23;0.68;;;11.60;99.90;;;;;;5046980;28;20045;-66
2024/03/12 12:52:00;;;;;;;2.08;1.08;;;11.60;99.90;;;;;;5048192;28;20132;-66
2024/03/12 12:54:30;;;;;;;1.25;0.80;;;11.70;99.90;;;;;;5045991;28;20067;-66
2024/03/12 12:56:59;;;;;;;2.75;1.23;;;11.70;99.90;;;;;;5048112;28;20045;-66
2024/03/12 12:59:32;;;;;;;2.55;1.55;;;11.70;99.90;;;;;;5046141;28;20128;-66